SWO VIRTUAL AIRLINE

SWO VIRTUAL AIRLINES Eine deutsche virtuelle Airline für jeden Sim-Pilot




 METAR AND TAF INFORMATION
METAR FOR VECC
ADDS - METARS form results

(1120 UTC 19 June 2019)
Data provider http://aviationweather.gov/metar/data/
 
METAR text: VECC 191100Z 12005KT 3800 HZ SCT018 FEW030 BKN100 37/30 Q0996 NOSIG
Conditions at: VECC (CALCUTTA/DUM DUM, IN) observed 1100 UTC 19 June 2019
Temperature: 37.0°C (99°F)
Dewpoint: 30.0°C (86°F) [RH = 68%]
Pressure (altimeter): 29.41 inches Hg (996.0 mb)
Winds: from the ESE (120 degrees) at 6 MPH (5 knots; 2.6 m/s)
Visibility: 2.36 miles (3.80 km)
Ceiling: 10000 feet AGL
Clouds: scattered clouds at 1800 feet AGL
few clouds at 3000 feet AGL
broken clouds at 10000 feet AGL
Weather: HZ  (haze)

METAR text: VECC 191048Z 12005KT 3800 HZ SCT018 FEW030 BKN100 37/30 Q0996 NOSIG
Conditions at: VECC (CALCUTTA/DUM DUM, IN) observed 1048 UTC 19 June 2019
Temperature: 37.0°C (99°F)
Dewpoint: 30.0°C (86°F) [RH = 68%]
Pressure (altimeter): 29.41 inches Hg (996.0 mb)
Winds: from the ESE (120 degrees) at 6 MPH (5 knots; 2.6 m/s)
Visibility: 2.36 miles (3.80 km)
Ceiling: 10000 feet AGL
Clouds: scattered clouds at 1800 feet AGL
few clouds at 3000 feet AGL
broken clouds at 10000 feet AGL
Weather: HZ  (haze)

METAR text: VECC 191030Z 12005KT 3800 HZ SCT018 FEW030 BKN100 37/31 Q0997 TEMPO FM1100 31015G25KT 1500 TSRA
Conditions at: VECC (CALCUTTA/DUM DUM, IN) observed 1030 UTC 19 June 2019
Temperature: 37.0°C (99°F)
Dewpoint: 31.0°C (88°F) [RH = 72%]
Pressure (altimeter): 29.44 inches Hg (997.0 mb)
Winds: from the ESE (120 degrees) at 6 MPH (5 knots; 2.6 m/s)
Visibility: 2.36 miles (3.80 km)
Ceiling: 10000 feet AGL
Clouds: scattered clouds at 1800 feet AGL
few clouds at 3000 feet AGL
broken clouds at 10000 feet AGL
Weather: HZ  (haze)

Forecast for: VECC (CALCUTTA/DUM DUM, IN)
Text: TAF VECC 191100Z 1912/1921 16008KT 3500 HZ SCT018 SCT100
Forecast period: 1200 to 2100 UTC 19 June 2019
Forecast type: FROM: standard forecast or significant change
Winds: from the SSE (160 degrees) at 9 MPH (8 knots; 4.1 m/s)
Visibility: 2.17 miles (3.49 km)
Ceiling: at least 12,000 feet AGL
Clouds: scattered clouds at 1800 feet AGL
scattered clouds at 10000 feet AGL
Weather: HZ  (haze)
Text: TEMPO 1913/1917 31015G25KT 1500 TSRA SCT015 FEW025CB OVC090
Forecast period: 1300 to 1700 UTC 19 June 2019
Forecast type: TEMPORARY: The following changes expected for less than half the time period
Winds: from the NW (310 degrees) at 17 MPH (15 knots; 7.7 m/s)
gusting to 29 MPH (25 knots; 12.9 m/s)
Visibility: 0.93 miles (1.50 km)
Ceiling: 9000 feet AGL
Clouds: scattered clouds at 1500 feet AGL
few clouds at 2500 feet AGL
overcast cloud deck at 9000 feet AGL
Weather: TSRA  (rain associated with thunderstorm(s))

 AIRPORT MAP

 RUNWAY INFORMATION
Runway 01L Runway length 7871 ft Runway width 150 ft
Runway elevation 19 ft Runway displaced threshold 0 ft Runway heading 6
Runway 19R Runway length 7871 ft Runway width 150 ft
Runway elevation 19 ft Runway displaced threshold 0 ft Runway heading 186
Runway 01R Runway length 11900 ft Runway width 150 ft
Runway elevation 20 ft Runway displaced threshold 0 ft Runway heading 6
Runway 19L Runway length 11900 ft Runway width 150 ft
Runway elevation 19 ft Runway displaced threshold 1390 ft Runway heading 186

 AIRPORT FREQUENCIES
Type A/G Name KOLKATA RD Frequency 127.3 MHZ
Type ACC Name KOLKATA CO Frequency 119.3 MHZ
Type APP Name KOLKATA AP Frequency 127.9 MHZ
Type APP CONTRO Name KOLKATA CO Frequency 132.45 MHZ
Type ATIS Name ATIS Frequency 126.4 MHZ
Type GND Name KOLKATA GN Frequency 121.9 MHZ
Type RADAR Name Feeder ARE Frequency 127.3 MHZ
Type TWR Name KOLKATA TW Frequency 118.1 MHZ

 AIRPORT NEAR NAVIGATION AIDS
Type VOR-DME Name Kolkata Frequency 112500 KHZ
Type NDB Name Kolkata Frequency 385 KHZ